createdAt,value
2023-05-05T00:02:17.897Z,40.85
2023-05-05T00:04:44.894Z,40.91
2023-05-05T00:07:12.168Z,41.12
2023-05-05T00:09:39.142Z,41.06
2023-05-05T00:12:06.290Z,41.09
2023-05-05T00:14:33.120Z,41.35
2023-05-05T00:17:00.547Z,41.40
2023-05-05T00:19:27.861Z,41.44
2023-05-05T00:21:54.794Z,41.43
2023-05-05T00:24:24.535Z,41.37
2023-05-05T00:26:51.414Z,41.41
2023-05-05T00:29:18.574Z,41.36
2023-05-05T00:31:45.983Z,41.81
2023-05-05T00:34:12.982Z,41.64
2023-05-05T00:36:39.906Z,41.41
2023-05-05T00:39:07.137Z,41.65
2023-05-05T00:41:34.353Z,41.70
2023-05-05T00:44:01.492Z,41.99
2023-05-05T00:46:30.520Z,42.02
2023-05-05T00:48:59.638Z,41.92
2023-05-05T00:51:27.671Z,42.16
2023-05-05T00:53:55.366Z,41.99
2023-05-05T00:56:23.217Z,42.12
2023-05-05T00:58:50.362Z,42.37
2023-05-05T01:01:17.752Z,42.16
2023-05-05T01:03:44.693Z,42.28
2023-05-05T01:06:20.711Z,42.69
2023-05-05T01:09:12.067Z,42.60
2023-05-05T01:12:21.740Z,42.57
2023-05-05T01:15:01.428Z,42.68
2023-05-05T01:17:45.772Z,42.39
2023-05-05T01:20:24.756Z,42.39
2023-05-05T01:22:58.554Z,42.41
2023-05-05T01:25:56.570Z,42.33
2023-05-05T01:29:06.226Z,42.39
2023-05-05T01:31:51.557Z,42.36
2023-05-05T01:34:28.121Z,42.33
2023-05-05T01:37:44.416Z,42.41
2023-05-05T01:40:13.475Z,42.28
2023-05-05T01:42:42.557Z,42.50
2023-05-05T01:45:12.954Z,42.55
2023-05-05T01:47:42.667Z,42.33
2023-05-05T01:50:11.461Z,42.58
2023-05-05T01:52:40.144Z,42.74
2023-05-05T01:55:09.610Z,42.62
2023-05-05T01:57:38.716Z,42.87
2023-05-05T02:00:07.722Z,42.97
2023-05-05T02:02:44.062Z,43.03
2023-05-05T02:05:13.190Z,42.97
2023-05-05T02:07:40.433Z,43.10
2023-05-05T02:10:08.790Z,43.13
2023-05-05T02:12:39.848Z,43.24
2023-05-05T02:15:08.288Z,43.40
2023-05-05T02:17:35.426Z,43.17
2023-05-05T02:20:04.698Z,43.42
2023-05-05T02:22:32.363Z,43.23
2023-05-05T02:24:59.161Z,43.58
2023-05-05T02:27:27.262Z,43.76
2023-05-05T02:29:59.088Z,43.53
2023-05-05T02:32:35.890Z,43.70
2023-05-05T02:35:12.816Z,43.73
2023-05-05T02:37:48.174Z,43.88
2023-05-05T02:40:22.387Z,43.68
2023-05-05T02:42:54.356Z,43.72
2023-05-05T02:45:26.753Z,43.68
2023-05-05T02:47:53.802Z,43.40
2023-05-05T02:50:22.001Z,43.32
2023-05-05T02:53:03.383Z,43.40
2023-05-05T02:56:12.937Z,43.60
2023-05-05T02:58:57.164Z,43.47
2023-05-05T03:02:15.603Z,43.83
2023-05-05T03:05:25.215Z,43.83
2023-05-05T03:07:56.051Z,43.65
2023-05-05T03:10:40.756Z,44.25
2023-05-05T03:13:11.132Z,44.46
2023-05-05T03:15:49.608Z,44.65
2023-05-05T03:18:22.515Z,44.83
2023-05-05T03:20:56.374Z,44.99
2023-05-05T03:23:23.377Z,45.17
2023-05-05T03:25:55.572Z,45.36
2023-05-05T03:28:34.818Z,45.54
2023-05-05T03:31:07.584Z,45.90
2023-05-05T03:33:36.924Z,45.99
2023-05-05T03:36:04.034Z,46.15
2023-05-05T03:38:30.978Z,46.22
2023-05-05T03:41:03.271Z,46.35
2023-05-05T03:43:31.211Z,46.41
2023-05-05T03:45:58.455Z,46.25
2023-05-05T03:48:25.596Z,46.29
2023-05-05T03:50:53.966Z,46.26
2023-05-05T03:53:22.969Z,46.08
2023-05-05T03:55:49.828Z,46.01
2023-05-05T03:58:16.684Z,46.01
2023-05-05T04:00:43.759Z,46.03
2023-05-05T04:03:11.432Z,46.04
2023-05-05T04:05:38.611Z,45.98
2023-05-05T04:08:05.852Z,45.86
2023-05-05T04:10:33.349Z,45.67
2023-05-05T04:13:01.350Z,45.58
2023-05-05T04:15:30.804Z,45.63
2023-05-05T04:17:57.657Z,45.36
2023-05-05T04:20:25.235Z,44.88
2023-05-05T04:22:52.762Z,44.72
2023-05-05T04:25:20.382Z,44.55
2023-05-05T04:27:48.612Z,44.36
2023-05-05T04:30:15.915Z,44.27
2023-05-05T04:32:42.835Z,44.21
2023-05-05T04:35:10.987Z,44.18
2023-05-05T04:37:37.934Z,44.39
2023-05-05T04:40:05.862Z,44.40
2023-05-05T04:42:34.372Z,44.45
2023-05-05T04:45:02.346Z,44.58
2023-05-05T04:47:30.303Z,44.65
2023-05-05T04:49:57.158Z,45.07
2023-05-05T04:52:23.989Z,45.15
2023-05-05T04:54:51.751Z,45.50
2023-05-05T04:57:18.518Z,45.47
2023-05-05T04:59:45.435Z,45.47
2023-05-05T05:02:13.033Z,45.33
2023-05-05T05:04:39.956Z,45.20
2023-05-05T05:07:06.782Z,45.45
2023-05-05T05:09:33.654Z,45.39
2023-05-05T05:12:02.892Z,45.43
2023-05-05T05:14:30.038Z,45.09
2023-05-05T05:16:56.852Z,44.67
2023-05-05T05:19:24.541Z,44.31
2023-05-05T05:21:51.624Z,44.38
2023-05-05T05:24:18.616Z,44.31
2023-05-05T05:26:45.455Z,44.45
2023-05-05T05:29:12.987Z,44.46
2023-05-05T05:31:39.942Z,44.69
2023-05-05T05:34:07.251Z,44.74
2023-05-05T05:36:35.119Z,44.60
2023-05-05T05:39:03.006Z,44.90
2023-05-05T05:41:29.907Z,45.18
2023-05-05T05:43:57.224Z,45.20
2023-05-05T05:46:24.183Z,45.27
2023-05-05T05:48:51.082Z,45.34
2023-05-05T05:51:18.755Z,45.62
2023-05-05T05:53:46.656Z,45.47
2023-05-05T05:56:14.127Z,45.33
2023-05-05T05:58:41.029Z,45.53
2023-05-05T06:01:08.331Z,45.67
2023-05-05T06:03:35.781Z,45.56
2023-05-05T06:06:03.010Z,45.50
2023-05-05T06:08:29.845Z,45.84
2023-05-05T06:10:57.635Z,46.00
2023-05-05T06:13:24.490Z,45.27
2023-05-05T06:15:52.919Z,45.46
2023-05-05T06:18:20.097Z,45.44
2023-05-05T06:20:50.795Z,45.38
2023-05-05T06:23:18.842Z,45.01
2023-05-05T06:25:51.508Z,44.99
2023-05-05T06:28:18.632Z,45.38
2023-05-05T06:30:45.452Z,45.35
2023-05-05T06:33:12.565Z,45.51
2023-05-05T06:35:39.397Z,45.84
2023-05-05T06:38:06.383Z,45.57
2023-05-05T06:40:33.233Z,45.50
2023-05-05T06:43:00.049Z,45.47
2023-05-05T06:45:33.733Z,45.69
2023-05-05T06:48:00.758Z,45.31
2023-05-05T06:50:27.571Z,45.35
2023-05-05T06:52:54.431Z,45.67
2023-05-05T06:55:21.705Z,45.65
2023-05-05T06:57:48.533Z,45.27
2023-05-05T07:00:16.908Z,45.46
2023-05-05T07:02:44.149Z,45.43
2023-05-05T07:05:11.084Z,45.34
2023-05-05T07:07:38.777Z,45.08
2023-05-05T07:10:06.679Z,45.11
2023-05-05T07:12:33.760Z,45.20
2023-05-05T07:15:03.206Z,44.58
2023-05-05T07:17:36.332Z,44.57
2023-05-05T07:20:03.414Z,44.48
2023-05-05T07:22:30.240Z,44.59
2023-05-05T07:24:57.081Z,44.42
2023-05-05T07:27:24.056Z,44.61
2023-05-05T07:29:51.203Z,44.71
2023-05-05T07:32:18.042Z,44.60
2023-05-05T07:34:44.836Z,44.48
2023-05-05T07:37:12.806Z,44.79
2023-05-05T07:39:39.608Z,44.86
2023-05-05T07:42:07.293Z,44.30
2023-05-05T07:44:34.228Z,44.74
2023-05-05T07:47:01.052Z,44.36
2023-05-05T07:49:27.914Z,44.46
2023-05-05T07:51:55.286Z,44.51
2023-05-05T07:54:22.164Z,44.67
2023-05-05T07:56:49.012Z,44.25
2023-05-05T07:59:16.167Z,44.51
2023-05-05T08:04:09.751Z,45.08
2023-05-05T08:06:36.704Z,45.01
2023-05-05T08:09:03.613Z,44.68
2023-05-05T08:11:30.488Z,44.50
2023-05-05T08:13:57.367Z,44.54
2023-05-05T08:16:24.272Z,44.45
2023-05-05T08:18:51.659Z,44.07
2023-05-05T08:21:18.470Z,44.22
2023-05-05T08:23:45.411Z,43.95
2023-05-05T08:26:12.257Z,44.13
2023-05-05T08:28:39.125Z,44.07
2023-05-05T08:31:06.737Z,44.10
2023-05-05T08:33:33.629Z,43.72
2023-05-05T08:36:00.468Z,43.69
2023-05-05T08:38:27.322Z,43.54
2023-05-05T08:40:54.178Z,43.19
2023-05-05T08:43:23.612Z,43.21
2023-05-05T08:45:51.542Z,43.03
2023-05-05T08:48:22.592Z,42.81
2023-05-05T08:50:57.300Z,42.93
2023-05-05T08:53:47.216Z,43.11
2023-05-05T08:56:15.904Z,42.74
2023-05-05T08:58:43.399Z,42.36
2023-05-05T09:01:11.026Z,42.50
2023-05-05T09:03:38.975Z,42.71
2023-05-05T09:06:06.911Z,42.49
2023-05-05T09:08:33.983Z,42.51
2023-05-05T09:11:02.147Z,42.26
2023-05-05T09:13:30.646Z,42.65
2023-05-05T09:15:58.504Z,42.50
2023-05-05T09:18:26.086Z,42.39
2023-05-05T09:20:53.000Z,42.42
2023-05-05T09:23:21.074Z,42.30
2023-05-05T09:26:05.973Z,42.65
2023-05-05T09:28:32.818Z,42.38
2023-05-05T09:31:16.097Z,42.42
2023-05-05T09:33:43.715Z,42.27
2023-05-05T09:36:11.532Z,41.80
2023-05-05T09:38:38.357Z,42.23
2023-05-05T09:41:06.446Z,42.16
2023-05-05T09:43:54.634Z,42.28
2023-05-05T09:46:21.922Z,42.12
2023-05-05T09:48:48.766Z,42.19
2023-05-05T09:51:16.044Z,42.23
2023-05-05T09:53:42.864Z,42.40
2023-05-05T09:56:10.404Z,42.40
2023-05-05T09:58:37.387Z,42.43
2023-05-05T10:01:04.368Z,42.51
2023-05-05T10:03:31.302Z,42.91
2023-05-05T10:05:59.578Z,42.91
2023-05-05T10:08:33.541Z,43.23
2023-05-05T10:11:06.365Z,43.19
2023-05-05T10:13:39.128Z,43.31
2023-05-05T10:16:09.165Z,43.40
2023-05-05T10:18:36.921Z,43.39
2023-05-05T10:21:04.851Z,43.40
2023-05-05T10:23:49.530Z,43.47
2023-05-05T10:26:19.499Z,43.36
2023-05-05T10:29:07.733Z,43.25
2023-05-05T10:31:47.770Z,43.04
2023-05-05T10:35:04.227Z,43.36
2023-05-05T10:37:31.324Z,43.10
2023-05-05T10:39:59.212Z,43.01
2023-05-05T10:42:27.565Z,43.02
2023-05-05T10:44:54.533Z,43.42
2023-05-05T10:47:23.957Z,43.50
2023-05-05T10:50:21.744Z,43.05
2023-05-05T10:53:00.434Z,43.06
2023-05-05T10:56:10.770Z,43.10
2023-05-05T10:58:55.569Z,42.98
2023-05-05T11:01:34.614Z,43.00
2023-05-05T11:04:22.298Z,42.59
2023-05-05T11:07:13.465Z,43.18
2023-05-05T11:10:02.013Z,42.83
2023-05-05T11:12:30.488Z,42.64
2023-05-05T11:15:22.122Z,42.34
2023-05-05T11:17:49.112Z,42.29
2023-05-05T11:20:16.271Z,41.92
2023-05-05T11:23:05.288Z,41.75
2023-05-05T11:25:35.690Z,41.31
2023-05-05T11:28:25.360Z,40.89
2023-05-05T11:30:54.806Z,40.54
2023-05-05T11:33:31.026Z,40.89
2023-05-05T11:36:02.705Z,39.78
2023-05-05T11:39:11.806Z,39.62
2023-05-05T11:42:22.722Z,38.54
2023-05-05T11:44:49.772Z,38.37
2023-05-05T11:47:16.585Z,37.81
2023-05-05T11:49:43.376Z,37.61
2023-05-05T11:52:14.529Z,37.47
2023-05-05T11:54:51.245Z,36.88
2023-05-05T11:57:26.836Z,37.29
2023-05-05T12:00:04.357Z,37.03
2023-05-05T12:02:34.405Z,37.02
2023-05-05T12:05:02.016Z,36.46
2023-05-05T12:07:32.208Z,36.01
2023-05-05T12:09:59.260Z,36.04
2023-05-05T12:12:40.490Z,36.25
2023-05-05T12:15:08.212Z,35.92
2023-05-05T12:17:45.954Z,36.15
2023-05-05T12:20:13.618Z,36.27
2023-05-05T12:22:40.903Z,35.45
2023-05-05T12:25:08.736Z,35.70
2023-05-05T12:27:35.950Z,35.37
2023-05-05T12:30:15.669Z,34.62
2023-05-05T12:32:42.909Z,35.25
2023-05-05T12:35:10.831Z,35.31
2023-05-05T12:37:38.523Z,35.24
2023-05-05T12:40:06.492Z,34.48
2023-05-05T12:42:39.551Z,33.50
2023-05-05T12:45:17.313Z,33.70
2023-05-05T12:47:44.688Z,33.26
2023-05-05T12:50:11.607Z,33.28
2023-05-05T12:52:45.787Z,32.58
2023-05-05T12:55:13.238Z,32.32
2023-05-05T12:58:00.822Z,31.17
2023-05-05T13:00:29.042Z,30.73
2023-05-05T13:02:56.765Z,30.56
2023-05-05T13:05:34.223Z,30.75
2023-05-05T13:08:01.084Z,30.58
2023-05-05T13:10:31.245Z,30.19
2023-05-05T13:12:58.375Z,29.67
2023-05-05T13:15:26.009Z,30.01
2023-05-05T13:18:02.455Z,30.94
2023-05-05T13:20:29.263Z,31.51
2023-05-05T13:22:56.074Z,32.06
2023-05-05T13:25:22.947Z,32.65
2023-05-05T13:27:49.797Z,32.79
2023-05-05T13:30:16.668Z,33.55
2023-05-05T13:32:43.522Z,33.45
2023-05-05T13:35:11.217Z,33.89
2023-05-05T13:37:39.494Z,34.67
2023-05-05T13:40:07.640Z,34.96
2023-05-05T13:42:34.469Z,35.70
2023-05-05T13:45:01.260Z,35.94
2023-05-05T13:47:28.108Z,36.15
2023-05-05T13:49:56.062Z,37.14
2023-05-05T13:52:22.881Z,37.37
2023-05-05T13:54:49.768Z,37.69
2023-05-05T13:57:16.856Z,37.91
2023-05-05T13:59:44.230Z,38.25
2023-05-05T14:02:11.167Z,38.73
2023-05-05T14:04:38.245Z,38.84
2023-05-05T14:07:05.061Z,39.05
2023-05-05T14:09:31.869Z,39.34
2023-05-05T14:11:58.873Z,39.77
2023-05-05T14:14:25.643Z,39.70
2023-05-05T14:16:52.719Z,40.30
2023-05-05T14:19:19.621Z,40.74
2023-05-05T14:21:46.437Z,41.50
2023-05-05T14:24:13.370Z,41.17
2023-05-05T14:26:40.167Z,41.14
2023-05-05T14:29:07.054Z,40.65
2023-05-05T14:31:33.903Z,40.32
2023-05-05T14:34:01.101Z,39.81
2023-05-05T14:36:27.936Z,39.90
2023-05-05T14:38:55.428Z,40.00
2023-05-05T14:41:22.358Z,40.45
2023-05-05T14:43:49.167Z,40.44
2023-05-05T14:46:16.069Z,40.54
2023-05-05T14:48:43.366Z,40.83
2023-05-05T14:51:10.148Z,40.92
2023-05-05T14:53:37.014Z,41.07
2023-05-05T14:56:03.854Z,41.01
2023-05-05T14:58:31.034Z,40.93
2023-05-05T15:00:58.057Z,40.47
2023-05-05T15:03:24.935Z,40.88
2023-05-05T15:05:51.910Z,41.28
2023-05-05T15:08:19.210Z,41.02
2023-05-05T15:10:46.603Z,41.18
2023-05-05T15:13:13.725Z,41.30
2023-05-05T15:15:41.054Z,41.21
2023-05-05T15:18:07.894Z,41.38
2023-05-05T15:20:34.729Z,41.55
2023-05-05T15:23:01.625Z,41.36
2023-05-05T15:25:28.478Z,41.84
2023-05-05T15:27:55.310Z,42.26
2023-05-05T15:30:22.187Z,42.76
2023-05-05T15:32:49.099Z,43.19
2023-05-05T15:35:16.067Z,43.22
2023-05-05T15:37:42.912Z,42.99
2023-05-05T15:40:10.545Z,43.24
2023-05-05T15:42:37.749Z,43.34
2023-05-05T15:45:05.902Z,44.10
2023-05-05T15:47:32.874Z,44.15
2023-05-05T15:49:59.700Z,44.06
2023-05-05T15:52:26.473Z,44.13
2023-05-05T15:54:53.357Z,44.14
2023-05-05T15:57:20.154Z,44.22
2023-05-05T15:59:47.051Z,44.00
2023-05-05T16:02:13.866Z,44.05
2023-05-05T16:04:40.747Z,43.69
2023-05-05T16:07:07.539Z,43.69
2023-05-05T16:09:34.345Z,43.59
2023-05-05T16:12:01.252Z,44.30
2023-05-05T16:14:28.282Z,44.96
2023-05-05T16:16:55.640Z,45.55
2023-05-05T16:19:23.330Z,45.74
2023-05-05T16:21:50.181Z,46.11
2023-05-05T16:24:17.115Z,46.56
2023-05-05T16:26:44.260Z,47.17
2023-05-05T16:29:11.883Z,47.51
2023-05-05T16:31:39.313Z,47.61
2023-05-05T16:34:07.003Z,47.88
2023-05-05T16:36:33.836Z,47.85
2023-05-05T16:39:00.765Z,48.11
2023-05-05T16:41:27.611Z,48.64
2023-05-05T16:43:54.564Z,48.89
2023-05-05T16:46:21.465Z,48.79
2023-05-05T16:48:48.432Z,48.92
2023-05-05T16:51:15.279Z,49.07
2023-05-05T16:53:42.065Z,49.54
2023-05-05T16:56:12.930Z,49.63
2023-05-05T16:58:40.499Z,49.93
2023-05-05T17:01:07.306Z,49.66
2023-05-05T17:03:34.128Z,49.98
2023-05-05T17:06:01.009Z,49.97
2023-05-05T17:08:27.823Z,50.28
2023-05-05T17:10:54.622Z,50.07
2023-05-05T17:13:22.960Z,50.20
2023-05-05T17:15:50.244Z,50.42
2023-05-05T17:18:19.971Z,50.28
2023-05-05T17:20:46.870Z,50.24
2023-05-05T17:23:13.778Z,50.19
2023-05-05T17:25:40.539Z,50.31
2023-05-05T17:28:07.461Z,50.32
2023-05-05T17:30:34.256Z,50.84
2023-05-05T17:33:01.104Z,50.46
2023-05-05T17:35:28.028Z,50.41
2023-05-05T17:37:54.978Z,50.52
2023-05-05T17:40:21.834Z,50.72
2023-05-05T17:42:48.649Z,50.84
2023-05-05T17:45:15.781Z,51.19
2023-05-05T17:47:42.614Z,51.32
2023-05-05T17:50:10.921Z,51.56
2023-05-05T17:52:37.976Z,50.95
2023-05-05T17:55:05.254Z,51.09
2023-05-05T17:57:32.069Z,51.27
2023-05-05T17:59:58.966Z,51.29
2023-05-05T18:02:25.890Z,51.61
2023-05-05T18:04:52.773Z,51.96
2023-05-05T18:07:20.347Z,51.96
2023-05-05T18:09:47.211Z,51.88
2023-05-05T18:12:14.050Z,51.81
2023-05-05T18:14:40.915Z,51.59
2023-05-05T18:17:07.752Z,51.65
2023-05-05T18:19:34.527Z,52.02
2023-05-05T18:22:01.471Z,52.10
2023-05-05T18:24:28.328Z,51.99
2023-05-05T18:26:55.157Z,52.02
2023-05-05T18:29:22.484Z,51.76
2023-05-05T18:31:52.590Z,51.72
2023-05-05T18:34:20.629Z,51.45
2023-05-05T18:36:50.657Z,51.72
2023-05-05T18:39:17.893Z,51.42
2023-05-05T18:41:44.756Z,51.38
2023-05-05T18:44:11.752Z,51.32
2023-05-05T18:46:38.623Z,51.47
2023-05-05T18:49:05.450Z,51.54
2023-05-05T18:51:32.243Z,51.81
2023-05-05T18:54:00.592Z,51.99
2023-05-05T18:56:27.567Z,52.00
2023-05-05T18:58:54.394Z,52.22
2023-05-05T19:01:21.272Z,51.88
2023-05-05T19:03:48.306Z,52.18
2023-05-05T19:06:16.207Z,51.91
2023-05-05T19:08:43.884Z,52.37
2023-05-05T19:11:10.771Z,52.26
2023-05-05T19:16:11.701Z,52.24
2023-05-05T19:18:39.702Z,52.42
2023-05-05T19:21:06.575Z,52.47
2023-05-05T19:23:33.541Z,52.25
2023-05-05T19:26:00.576Z,52.37
2023-05-05T19:28:27.389Z,52.37
2023-05-05T19:30:54.255Z,52.67
2023-05-05T19:33:21.249Z,52.71
2023-05-05T19:35:48.150Z,52.74
2023-05-05T19:38:15.000Z,52.81
2023-05-05T19:40:42.716Z,53.14
2023-05-05T19:43:09.572Z,53.41
2023-05-05T19:45:36.449Z,53.37
2023-05-05T19:48:03.469Z,53.51
2023-05-05T19:50:31.483Z,53.45
2023-05-05T19:52:58.293Z,53.77
2023-05-05T19:55:25.601Z,53.68
2023-05-05T19:57:52.445Z,53.94
2023-05-05T20:00:19.715Z,54.05
2023-05-05T20:02:47.207Z,54.18
2023-05-05T20:05:16.180Z,54.18
2023-05-05T20:07:46.215Z,54.21
2023-05-05T20:10:13.359Z,54.23
2023-05-05T20:12:47.430Z,54.19
2023-05-05T20:15:20.287Z,54.27
2023-05-05T20:17:48.136Z,54.11
2023-05-05T20:20:21.779Z,54.23
2023-05-05T20:22:49.504Z,53.97
2023-05-05T20:25:16.612Z,53.98
2023-05-05T20:27:43.806Z,53.73
2023-05-05T20:30:11.997Z,53.59
2023-05-05T20:32:38.875Z,53.70
2023-05-05T20:35:06.427Z,53.44
2023-05-05T20:37:33.316Z,53.31
2023-05-05T20:40:00.316Z,53.14
2023-05-05T20:42:27.625Z,52.74
2023-05-05T20:44:54.608Z,52.69
2023-05-05T20:47:21.437Z,52.87
2023-05-05T20:49:48.242Z,52.59
2023-05-05T20:52:15.010Z,52.46
2023-05-05T20:54:41.892Z,52.79
2023-05-05T20:57:08.779Z,52.54
2023-05-05T20:59:35.682Z,52.33
2023-05-05T21:02:02.536Z,52.02
2023-05-05T21:04:29.596Z,51.92
2023-05-05T21:06:57.274Z,51.83
2023-05-05T21:09:24.334Z,51.66
2023-05-05T21:11:51.137Z,51.81
2023-05-05T21:14:18.021Z,51.65
2023-05-05T21:16:44.876Z,51.81
2023-05-05T21:19:11.723Z,51.87
2023-05-05T21:21:38.561Z,51.56
2023-05-05T21:24:07.772Z,51.53
2023-05-05T21:26:35.028Z,51.66
2023-05-05T21:29:01.908Z,51.51
2023-05-05T21:31:28.856Z,51.44
2023-05-05T21:33:55.702Z,51.62
2023-05-05T21:36:22.539Z,51.30
2023-05-05T21:38:49.678Z,51.23
2023-05-05T21:41:16.691Z,51.17
2023-05-05T21:43:43.541Z,51.45
2023-05-05T21:46:10.482Z,51.55
2023-05-05T21:48:39.028Z,51.28
2023-05-05T21:51:06.665Z,51.51
2023-05-05T21:53:33.551Z,51.08
2023-05-05T21:56:00.857Z,50.97
2023-05-05T21:58:27.829Z,51.00
2023-05-05T22:00:54.659Z,50.87
2023-05-05T22:03:21.552Z,50.76
2023-05-05T22:05:48.394Z,50.83
2023-05-05T22:08:15.204Z,50.46
2023-05-05T22:10:41.996Z,50.52
2023-05-05T22:13:10.359Z,50.15
2023-05-05T22:15:45.877Z,50.31
2023-05-05T22:18:14.208Z,50.52
2023-05-05T22:20:41.180Z,50.40
2023-05-05T22:23:08.106Z,50.36
2023-05-05T22:25:35.345Z,50.16
2023-05-05T22:28:02.294Z,50.49
2023-05-05T22:30:29.211Z,50.43
2023-05-05T22:32:56.142Z,50.31
2023-05-05T22:35:23.104Z,50.28
2023-05-05T22:37:49.954Z,50.42
2023-05-05T22:40:16.749Z,50.79
2023-05-05T22:42:43.590Z,50.56
2023-05-05T22:45:11.303Z,50.37
2023-05-05T22:47:38.215Z,50.29
2023-05-05T22:50:05.883Z,50.21
2023-05-05T22:52:32.694Z,50.17
2023-05-05T22:54:59.638Z,50.10
2023-05-05T22:57:26.453Z,50.01
2023-05-05T22:59:53.301Z,50.26
2023-05-05T23:02:20.147Z,50.24
2023-05-05T23:04:47.049Z,50.39
2023-05-05T23:07:13.954Z,50.15
2023-05-05T23:09:40.890Z,50.21
2023-05-05T23:12:07.771Z,50.14
2023-05-05T23:14:35.812Z,50.27
2023-05-05T23:17:02.740Z,50.35
2023-05-05T23:19:32.437Z,50.38
2023-05-05T23:22:00.138Z,50.34
2023-05-05T23:24:28.253Z,50.33
2023-05-05T23:26:58.014Z,50.49
2023-05-05T23:29:24.921Z,50.49
2023-05-05T23:31:51.749Z,50.44
2023-05-05T23:34:18.594Z,50.41
2023-05-05T23:36:45.470Z,50.50
2023-05-05T23:39:12.241Z,50.63
2023-05-05T23:41:39.150Z,50.67
2023-05-05T23:44:06.018Z,50.77
2023-05-05T23:46:32.827Z,50.74
2023-05-05T23:48:59.689Z,50.89
2023-05-05T23:51:27.212Z,50.94
2023-05-05T23:53:57.236Z,50.87
2023-05-05T23:56:24.326Z,50.76
2023-05-05T23:58:52.337Z,50.56
